createdAt,value
2022-12-23T07:07:54.845Z,19.87
2022-12-23T07:12:56.909Z,20.42
2022-12-23T07:17:58.993Z,20.07
2022-12-23T07:23:01.131Z,22.30
2022-12-23T07:28:03.253Z,21.95
2022-12-23T07:33:05.357Z,20.30
2022-12-23T07:38:07.499Z,25.23
2022-12-23T07:43:10.168Z,20.92
2022-12-23T07:48:12.302Z,19.33
2022-12-23T07:53:14.408Z,22.33
2022-12-23T07:58:16.457Z,21.27
2022-12-23T08:03:18.679Z,20.50
2022-12-23T08:08:20.815Z,21.43
2022-12-23T08:13:22.928Z,19.10
2022-12-23T08:18:26.036Z,18.98
2022-12-23T08:23:29.856Z,19.45
2022-12-23T08:28:32.578Z,20.10
2022-12-23T08:33:36.690Z,23.55
2022-12-23T08:38:38.792Z,19.73
2022-12-23T08:43:40.972Z,20.67
2022-12-23T08:48:48.872Z,21.42
2022-12-23T08:53:59.822Z,19.20
2022-12-23T08:59:04.055Z,19.70
2022-12-23T09:04:07.386Z,20.53
2022-12-23T09:09:12.880Z,19.42
2022-12-23T09:14:15.019Z,19.10
2022-12-23T09:19:17.080Z,20.13
2022-12-23T09:24:19.123Z,20.77
2022-12-23T09:29:21.301Z,22.90
2022-12-23T09:34:23.393Z,21.67
2022-12-23T09:39:25.721Z,22.15
2022-12-23T09:44:30.574Z,24.35
2022-12-23T09:49:34.054Z,23.60
2022-12-23T09:54:46.205Z,21.47
2022-12-23T10:00:26.628Z,22.42
2022-12-23T10:05:57.936Z,20.90
2022-12-23T10:11:04.380Z,20.43
2022-12-23T10:16:16.896Z,20.92
2022-12-23T10:21:33.930Z,17.90
2022-12-23T10:26:46.810Z,19.10
2022-12-23T10:32:17.413Z,19.62
2022-12-23T10:37:30.089Z,23.50
2022-12-23T10:42:43.838Z,21.93
2022-12-23T10:47:59.764Z,21.70
2022-12-23T10:53:06.408Z,22.42
2022-12-23T10:58:18.229Z,20.75
2022-12-23T11:03:24.038Z,21.20
2022-12-23T11:08:29.260Z,19.73
2022-12-23T11:13:37.643Z,21.65
2022-12-23T11:18:56.370Z,23.30
2022-12-23T11:24:18.129Z,23.87
2022-12-23T11:29:29.304Z,23.62
2022-12-23T11:34:37.722Z,20.77
2022-12-23T11:39:46.521Z,21.67
2022-12-23T11:44:51.941Z,21.80
2022-12-23T11:49:57.181Z,23.38
2022-12-23T11:55:05.413Z,27.97
2022-12-23T12:00:19.082Z,29.63
2022-12-23T12:05:24.064Z,27.80
2022-12-23T12:10:32.815Z,26.03
2022-12-23T12:15:51.529Z,23.58
2022-12-23T12:21:01.198Z,22.55
2022-12-23T12:26:08.409Z,25.27
2022-12-23T12:31:26.048Z,24.30
2022-12-23T12:36:46.624Z,25.17
2022-12-23T12:42:05.039Z,23.15
2022-12-23T12:52:59.597Z,21.52
2022-12-23T12:58:04.747Z,20.20
2022-12-23T13:03:49.641Z,21.93
2022-12-23T13:08:52.050Z,25.25
2022-12-23T13:14:18.908Z,24.80
2022-12-23T13:19:33.358Z,26.03
2022-12-23T13:25:10.794Z,23.13
2022-12-23T13:30:17.834Z,26.27
2022-12-23T13:35:41.177Z,25.35
2022-12-23T13:41:05.854Z,25.40
2022-12-23T13:46:24.573Z,27.30
2022-12-23T13:51:37.745Z,25.65
2022-12-23T13:56:49.570Z,25.77
2022-12-23T14:01:52.672Z,24.37
2022-12-23T14:06:58.356Z,22.00
2022-12-23T14:12:22.219Z,22.20
2022-12-23T14:18:04.575Z,22.30
2022-12-23T14:23:25.629Z,23.42
2022-12-23T14:28:33.832Z,28.40
2022-12-23T14:33:37.786Z,25.60
2022-12-23T14:38:40.755Z,23.60
2022-12-23T14:43:45.773Z,23.75
2022-12-23T14:48:47.996Z,21.57
2022-12-23T14:53:53.697Z,23.48
2022-12-23T14:59:14.107Z,22.35
2022-12-23T15:04:22.082Z,23.13
2022-12-23T15:09:31.627Z,22.93
2022-12-23T15:14:50.849Z,22.13
2022-12-23T15:19:53.686Z,23.75
2022-12-23T15:24:55.817Z,21.20
2022-12-23T15:29:58.760Z,22.48
2022-12-23T15:35:06.198Z,21.08
2022-12-23T15:40:34.221Z,23.13
2022-12-23T15:45:42.069Z,22.70
2022-12-23T15:50:44.222Z,22.52
2022-12-23T15:55:48.898Z,21.13
2022-12-23T16:00:59.068Z,21.83
2022-12-23T16:06:16.936Z,22.45
2022-12-23T16:11:21.078Z,21.70
2022-12-23T16:16:34.170Z,21.70
2022-12-23T16:21:37.085Z,22.80
2022-12-23T16:26:41.859Z,21.60
2022-12-23T16:31:51.237Z,20.27
2022-12-23T16:36:57.943Z,20.98
2022-12-23T16:42:00.084Z,22.15
2022-12-23T16:47:13.339Z,21.47
2022-12-23T16:52:15.773Z,21.53
2022-12-23T16:57:17.869Z,21.52
2022-12-23T17:02:25.176Z,21.27
2022-12-23T17:07:27.626Z,22.42
2022-12-23T17:12:29.786Z,24.85
2022-12-23T17:17:32.439Z,21.80
2022-12-23T17:22:36.660Z,21.27
2022-12-23T17:27:39.586Z,21.45
2022-12-23T17:32:41.813Z,20.83
2022-12-23T17:37:43.944Z,21.40
2022-12-23T17:42:47.162Z,20.85
2022-12-23T17:47:49.449Z,20.98
2022-12-23T17:52:52.569Z,21.70
2022-12-23T17:57:55.750Z,21.70
2022-12-23T18:02:57.943Z,20.90
2022-12-23T18:08:01.525Z,21.60
2022-12-23T18:13:07.239Z,20.80
2022-12-23T18:18:20.475Z,20.35
2022-12-23T18:23:30.171Z,20.35
2022-12-23T18:28:32.368Z,19.97
2022-12-23T18:33:34.465Z,22.87
2022-12-23T18:38:36.600Z,21.80
2022-12-23T18:43:38.789Z,21.73
2022-12-23T18:48:40.932Z,22.08
2022-12-23T18:53:43.689Z,22.02
2022-12-23T18:58:45.922Z,21.77
2022-12-23T19:03:48.005Z,21.00
2022-12-23T19:08:50.079Z,20.48
2022-12-23T19:13:52.265Z,21.27
2022-12-23T19:18:54.335Z,21.67
2022-12-23T19:23:57.924Z,21.48
2022-12-23T19:29:00.355Z,26.98
2022-12-23T19:34:02.433Z,23.83
2022-12-23T19:39:04.483Z,25.20
2022-12-23T19:44:06.672Z,23.75
2022-12-23T19:49:11.628Z,22.63
2022-12-23T19:54:17.315Z,22.17
2022-12-23T19:59:20.451Z,22.50
2022-12-23T20:04:24.925Z,22.27
2022-12-23T20:09:27.097Z,22.73
2022-12-23T20:14:33.755Z,23.70
2022-12-23T20:19:43.768Z,23.87
2022-12-23T20:24:47.842Z,24.83
2022-12-23T20:29:49.936Z,24.23
2022-12-23T20:34:52.025Z,22.48
2022-12-23T20:39:54.265Z,22.33
2022-12-23T20:44:56.298Z,22.57
2022-12-23T20:49:58.420Z,22.02
2022-12-23T20:55:01.700Z,23.42
2022-12-23T21:00:05.673Z,22.23
2022-12-23T21:05:08.146Z,22.50
2022-12-23T21:10:10.499Z,23.87
2022-12-23T21:15:12.603Z,22.90
2022-12-23T21:20:14.900Z,22.42
2022-12-23T21:25:17.172Z,22.17
2022-12-23T21:30:19.429Z,21.93
2022-12-23T21:35:21.545Z,23.33
2022-12-23T21:40:23.683Z,23.55
2022-12-23T21:45:25.741Z,23.48
2022-12-23T21:50:27.820Z,22.20
2022-12-23T21:55:29.992Z,22.20
2022-12-23T22:00:32.162Z,21.62
2022-12-23T22:05:34.264Z,20.27
2022-12-23T22:10:39.251Z,22.05
